createdAt,value
2022-10-01T00:01:38.327Z,100.00
2022-10-01T00:06:47.902Z,99.66
2022-10-01T00:11:55.071Z,100.00
2022-10-01T00:17:03.249Z,99.92
2022-10-01T00:22:18.431Z,98.58
2022-10-01T00:27:25.252Z,99.59
2022-10-01T00:32:56.374Z,99.38
2022-10-01T00:38:08.845Z,99.03
2022-10-01T00:43:41.368Z,98.60
2022-10-01T00:49:13.165Z,98.35
2022-10-01T00:54:29.790Z,97.59
2022-10-01T00:59:58.430Z,97.46
2022-10-01T01:05:16.687Z,96.52
2022-10-01T01:10:46.346Z,96.96
2022-10-01T01:16:02.906Z,97.04
2022-10-01T01:21:38.633Z,96.79
2022-10-01T01:27:11.646Z,96.38
2022-10-01T01:32:33.701Z,96.63
2022-10-01T01:37:47.547Z,96.82
2022-10-01T01:43:13.696Z,97.33
2022-10-01T01:48:21.058Z,97.11
2022-10-01T01:53:35.998Z,97.54
2022-10-01T01:58:48.425Z,97.24
2022-10-01T02:04:04.683Z,97.32
2022-10-01T02:09:21.875Z,96.59
2022-10-01T02:14:47.127Z,96.93
2022-10-01T02:20:06.627Z,97.36
2022-10-01T02:25:33.927Z,97.05
2022-10-01T02:30:58.316Z,97.30
2022-10-01T02:36:14.784Z,97.15
2022-10-01T02:41:43.391Z,97.20
2022-10-01T02:47:22.251Z,96.58
2022-10-01T02:52:42.028Z,96.39
2022-10-01T03:03:33.102Z,96.49
2022-10-01T03:09:00.897Z,96.43
2022-10-01T03:14:11.153Z,96.39
2022-10-01T03:19:20.738Z,96.43
2022-10-01T03:24:32.082Z,95.56
2022-10-01T03:29:47.308Z,95.40
2022-10-01T03:34:54.411Z,96.46
2022-10-01T03:40:06.543Z,95.51
2022-10-01T03:45:13.581Z,96.11
2022-10-01T03:50:23.561Z,95.84
2022-10-01T03:55:34.219Z,96.23
2022-10-01T04:00:42.409Z,95.34
2022-10-01T04:05:51.542Z,95.71
2022-10-01T04:11:01.018Z,95.38
2022-10-01T04:16:07.292Z,95.78
2022-10-01T04:21:19.474Z,95.28
2022-10-01T04:26:30.716Z,96.31
2022-10-01T04:37:01.060Z,95.35
2022-10-01T04:42:15.324Z,95.10
2022-10-01T04:47:26.016Z,96.16
2022-10-01T04:52:34.088Z,95.62
2022-10-01T04:57:56.307Z,96.47
2022-10-01T05:03:07.784Z,95.49
2022-10-01T05:08:16.562Z,96.24
2022-10-01T05:13:32.747Z,97.02
2022-10-01T05:18:48.166Z,95.73
2022-10-01T05:23:52.961Z,95.47
2022-10-01T05:28:59.652Z,96.36
2022-10-01T05:34:13.076Z,95.26
2022-10-01T05:39:31.594Z,95.88
2022-10-01T05:44:47.661Z,95.50
2022-10-01T05:49:52.691Z,95.94
2022-10-01T05:54:57.499Z,94.38
2022-10-01T06:00:08.178Z,94.48
2022-10-01T06:05:16.029Z,93.93
2022-10-01T06:10:28.615Z,93.80
2022-10-01T06:15:52.106Z,93.19
2022-10-01T06:21:00.275Z,93.23
2022-10-01T06:26:18.456Z,93.31
2022-10-01T06:31:29.903Z,92.79
2022-10-01T06:36:36.735Z,92.98
2022-10-01T06:41:45.006Z,92.08
2022-10-01T06:46:55.980Z,91.51
2022-10-01T06:52:20.047Z,90.72
2022-10-01T06:57:28.839Z,90.69
2022-10-01T07:02:50.618Z,90.04
2022-10-01T07:08:04.392Z,89.77
2022-10-01T07:13:21.559Z,89.70
2022-10-01T07:18:36.550Z,88.92
2022-10-01T07:24:05.487Z,88.25
2022-10-01T07:29:16.220Z,88.44
2022-10-01T07:34:35.859Z,86.93
2022-10-01T07:39:57.612Z,86.97
2022-10-01T07:45:11.207Z,87.34
2022-10-01T07:50:47.714Z,88.40
2022-10-01T07:56:08.309Z,89.44
2022-10-01T08:01:49.602Z,91.48
2022-10-01T08:12:22.151Z,92.66
2022-10-01T08:17:32.197Z,93.52
2022-10-01T08:23:49.687Z,94.53
2022-10-01T08:29:24.294Z,94.81
2022-10-01T08:34:34.263Z,95.22
2022-10-01T08:39:45.581Z,95.05
2022-10-01T08:44:54.729Z,95.15
2022-10-01T08:50:24.077Z,93.53
2022-10-01T08:55:38.116Z,93.12
2022-10-01T09:00:50.420Z,93.13
2022-10-01T09:06:10.974Z,92.36
2022-10-01T09:11:33.761Z,92.90
2022-10-01T09:16:55.206Z,92.88
2022-10-01T09:22:22.742Z,93.36
2022-10-01T09:27:36.920Z,94.32
2022-10-01T09:32:58.220Z,95.32
2022-10-01T09:38:06.662Z,96.53
2022-10-01T09:43:20.454Z,97.33
2022-10-01T09:48:38.545Z,98.95
2022-10-01T09:53:52.779Z,99.88
2022-10-01T09:59:11.544Z,100.00
2022-10-01T10:04:35.256Z,100.00
2022-10-01T10:09:41.846Z,100.00
2022-10-01T10:15:02.182Z,100.00
2022-10-01T10:20:44.753Z,100.00
2022-10-01T10:26:02.911Z,100.00
2022-10-01T10:31:16.924Z,100.00
2022-10-01T10:36:42.023Z,100.00
2022-10-01T10:42:00.408Z,100.00
2022-10-01T10:47:18.444Z,100.00
2022-10-01T10:52:37.883Z,100.00
2022-10-01T10:57:46.699Z,100.00
2022-10-01T11:02:57.214Z,100.00
2022-10-01T11:08:12.976Z,100.00
2022-10-01T11:13:35.505Z,100.00
2022-10-01T11:19:07.444Z,100.00
2022-10-01T11:24:35.754Z,100.00
2022-10-01T11:29:58.314Z,100.00
2022-10-01T11:35:29.659Z,100.00
2022-10-01T11:41:04.971Z,100.00
2022-10-01T11:46:25.629Z,100.00
2022-10-01T11:51:39.980Z,100.00
2022-10-01T11:57:13.822Z,100.00
2022-10-01T12:02:26.553Z,100.00
2022-10-01T12:07:39.244Z,100.00
2022-10-01T12:12:54.616Z,100.00
2022-10-01T12:18:20.192Z,100.00
2022-10-01T12:23:39.946Z,100.00
2022-10-01T12:29:13.530Z,100.00
2022-10-01T12:34:39.053Z,100.00
2022-10-01T12:40:07.964Z,100.00
2022-10-01T12:45:28.914Z,100.00
2022-10-01T12:50:42.429Z,100.00
2022-10-01T12:56:10.936Z,100.00
2022-10-01T13:01:31.878Z,100.00
2022-10-01T13:06:49.003Z,100.00
2022-10-01T13:12:22.642Z,100.00
2022-10-01T13:17:51.280Z,100.00
2022-10-01T13:23:23.568Z,99.44
2022-10-01T13:28:49.251Z,99.41
2022-10-01T13:34:06.203Z,99.28
2022-10-01T13:44:47.701Z,99.14
2022-10-01T13:50:28.367Z,99.04
2022-10-01T13:55:41.220Z,97.87
2022-10-01T14:01:03.426Z,97.42
2022-10-01T14:06:33.563Z,97.12
2022-10-01T14:11:57.045Z,97.28
2022-10-01T14:17:12.886Z,96.50
2022-10-01T14:22:30.229Z,95.18
2022-10-01T14:27:51.945Z,94.88
2022-10-01T14:33:31.825Z,94.20
2022-10-01T14:38:54.502Z,94.61
2022-10-01T14:44:48.460Z,94.55
2022-10-01T14:49:57.259Z,94.44
2022-10-01T14:55:20.063Z,94.82
2022-10-01T15:00:31.302Z,93.50
2022-10-01T15:05:47.266Z,93.35
2022-10-01T15:11:24.607Z,93.20
2022-10-01T15:16:34.563Z,93.57
2022-10-01T15:21:53.437Z,93.26
2022-10-01T15:27:20.619Z,92.96
2022-10-01T15:33:01.649Z,93.44
2022-10-01T15:38:09.875Z,93.60
2022-10-01T15:49:28.369Z,94.73
2022-10-01T15:54:36.182Z,94.93
2022-10-01T16:00:00.975Z,95.38
2022-10-01T16:05:11.539Z,95.40
2022-10-01T16:10:41.296Z,96.12
2022-10-01T16:16:28.920Z,95.65
2022-10-01T16:21:46.339Z,95.69
2022-10-01T16:27:00.124Z,95.81
2022-10-01T16:32:20.348Z,96.47
2022-10-01T16:37:27.379Z,96.29
2022-10-01T16:48:04.628Z,96.53
2022-10-01T16:53:18.478Z,97.63
2022-10-01T16:58:28.646Z,97.04
2022-10-01T17:03:38.126Z,97.34
2022-10-01T17:08:52.286Z,97.49
2022-10-01T17:14:04.956Z,98.07
2022-10-01T17:19:17.388Z,98.57
2022-10-01T17:24:25.514Z,99.22
2022-10-01T17:29:36.415Z,99.21
2022-10-01T17:34:47.223Z,99.90
2022-10-01T17:40:39.067Z,99.96
2022-10-01T17:45:56.822Z,99.77
2022-10-01T17:51:11.876Z,100.00
2022-10-01T17:56:20.483Z,100.00
2022-10-01T18:01:46.758Z,100.00
2022-10-01T18:07:00.964Z,100.00
2022-10-01T18:12:06.408Z,100.00
2022-10-01T18:17:14.957Z,100.00
2022-10-01T18:22:23.520Z,100.00
2022-10-01T18:27:32.082Z,100.00
2022-10-01T18:32:46.238Z,100.00
2022-10-01T18:38:01.504Z,100.00
2022-10-01T18:43:25.581Z,100.00
2022-10-01T18:49:00.298Z,100.00
2022-10-01T18:54:35.131Z,100.00
2022-10-01T19:00:09.086Z,100.00
2022-10-01T19:05:40.824Z,100.00
2022-10-01T19:11:05.647Z,100.00
2022-10-01T19:16:29.647Z,100.00
2022-10-01T19:21:45.430Z,100.00
2022-10-01T19:27:22.220Z,100.00
2022-10-01T19:32:38.298Z,100.00
2022-10-01T19:37:52.758Z,100.00
2022-10-01T19:43:17.448Z,100.00
2022-10-01T19:48:38.918Z,100.00
2022-10-01T19:53:51.396Z,100.00
2022-10-01T19:58:57.010Z,99.90
2022-10-01T20:04:24.822Z,99.36
2022-10-01T20:09:48.913Z,99.22
2022-10-01T20:15:21.841Z,99.12
2022-10-01T20:20:39.058Z,98.73
2022-10-01T20:25:48.393Z,98.98
2022-10-01T20:31:09.768Z,99.11
2022-10-01T20:36:24.072Z,99.28
2022-10-01T20:41:43.029Z,99.37
2022-10-01T20:46:56.679Z,99.65
2022-10-01T20:52:07.860Z,100.00
2022-10-01T20:57:38.211Z,100.00
2022-10-01T21:03:05.577Z,100.00
2022-10-01T21:08:19.020Z,100.00
2022-10-01T21:13:35.174Z,100.00
2022-10-01T21:18:53.132Z,100.00
2022-10-01T21:24:13.718Z,100.00
2022-10-01T21:29:58.796Z,100.00
2022-10-01T21:35:29.858Z,100.00
2022-10-01T21:41:14.444Z,100.00
2022-10-01T21:46:25.016Z,100.00
2022-10-01T21:51:44.362Z,100.00
2022-10-01T21:57:04.364Z,100.00
2022-10-01T22:02:29.946Z,100.00
2022-10-01T22:07:53.117Z,100.00
2022-10-01T22:13:17.106Z,100.00
2022-10-01T22:18:43.460Z,100.00
2022-10-01T22:24:11.880Z,100.00
2022-10-01T22:29:32.072Z,100.00
2022-10-01T22:34:49.842Z,100.00
2022-10-01T22:40:06.376Z,100.00
2022-10-01T22:45:18.352Z,100.00
2022-10-01T22:50:55.282Z,100.00
2022-10-01T22:56:07.293Z,100.00
2022-10-01T23:01:43.548Z,100.00
2022-10-01T23:06:58.970Z,100.00
2022-10-01T23:12:16.527Z,100.00
2022-10-01T23:17:34.019Z,100.00
2022-10-01T23:22:57.979Z,100.00
2022-10-01T23:28:27.336Z,100.00
2022-10-01T23:33:50.101Z,100.00
2022-10-01T23:39:34.577Z,100.00
2022-10-01T23:44:51.817Z,100.00
2022-10-01T23:50:16.091Z,100.00
2022-10-01T23:56:00.843Z,100.00
